Weather reports worldwide

Advertisment
Mende, France (7554): temperature & dewpoint: 09.12.2018 07:00:00 - 15.12.2018 07:00:00 (CET)Mende, France (7554): temperature 5cm: 09.12.2018 07:00:00 - 15.12.2018 07:00:00 (CET)Mende, France (7554): temperature -20cm & temperature -100cm: 09.12.2018 07:00:00 - 15.12.2018 07:00:00 (CET)Mende, France (7554): wind speed & gusts: 09.12.2018 07:00:00 - 15.12.2018 07:00:00 (CET)Mende, France (7554): wind direction: 09.12.2018 07:00:00 - 15.12.2018 07:00:00 (CET)Mende, France (7554): visibility: 09.12.2018 07:00:00 - 15.12.2018 07:00:00 (CET)Mende, France (7554): sunshine duration: 09.12.2018 07:00:00 - 15.12.2018 07:00:00 (CET)Mende, France (7554): precipitation: 09.12.2018 07:00:00 - 15.12.2018 07:00:00 (CET)
Date & Time tt [°C] td [°C] tt 5cm [°C] tt -20cm [°C] tt -100cm [°C] ff [km/h] ff [kn] fx [km/h] fx [kn] dd vv [km] sd [min] rr [mm]
15.12.2018 07:00:00 - - - - - - - - - - - - -
15.12.2018 06:00:00 -5,9 -6,7 -9,4 5,0 8,8 3 1 8 4 WSW 11 0 0,0
15.12.2018 05:00:00 -5,7 -6,5 -8,2 5,1 8,8 2 1 7 4 SE 20 0 0,0
15.12.2018 04:00:00 -5,3 -6,1 -7,9 5,1 8,8 3 2 13 7 W 14 0 0,0
15.12.2018 03:00:00 -5,0 -5,8 -7,6 5,2 8,9 4 2 9 5 WSW 14 0 0,0
15.12.2018 02:00:00 -4,3 -5,1 -7,6 5,2 8,9 3 1 12 6 W 20 0 0,0
15.12.2018 01:00:00 -3,7 -4,5 -6,0 5,3 8,9 7 4 16 9 WSW 19 0 0,0
15.12.2018 00:00:00 -2,9 -3,4 -4,4 5,3 8,9 6 4 16 9 WSW 20 0 0,0
14.12.2018 23:00:00 -3,2 -3,7 -5,7 5,3 8,9 6 3 14 8 W 18 0 0,0
14.12.2018 22:00:00 -2,7 -3,2 -4,8 5,3 8,9 7 4 15 8 W 1,1 0 0,0
14.12.2018 21:00:00 -2,5 -3,2 -4,7 5,3 8,9 3 2 12 6 WNW 12 0 0,0
14.12.2018 20:00:00 -2,0 -2,8 -4,1 5,2 8,9 5 3 10 6 WNW 19 0 0,0
14.12.2018 19:00:00 -1,3 -2,3 -2,7 5,1 8,9 6 3 16 8 WNW 19 0 0,0
14.12.2018 18:00:00 -0,5 -1,8 -1,6 5,1 8,9 6 4 18 10 WSW 20 0 0,0
14.12.2018 17:00:00 1,2 -1,2 0,3 5,0 9,0 12 7 23 13 WSW 20 40 0,0
14.12.2018 16:00:00 4,3 -1,3 3,4 4,9 9,0 10 5 23 12 WNW 20 53 0,0
14.12.2018 15:00:00 4,5 -0,9 7,1 4,9 9,0 14 8 29 16 NW 20 58 0,0
14.12.2018 14:00:00 3,4 -0,4 4,9 4,9 9,0 16 8 24 13 NW 20 41 0,0
14.12.2018 13:00:00 3,4 2,4 3,2 4,9 9,0 9 5 23 12 WNW 20 15 0,0
14.12.2018 12:00:00 2,0 1,6 3,1 4,9 9,0 9 5 18 10 W 20 3 0,0
14.12.2018 11:00:00 1,6 1,2 1,5 4,9 9,0 4 2 15 8 W 9 0 0,0
14.12.2018 10:00:00 0,8 0,5 0,1 4,9 9,0 9 5 16 8 W 0,2 6 0,0
14.12.2018 09:00:00 0,5 0,1 0,2 4,9 9,1 0 0 9 5 N 0,1 0 0,0
14.12.2018 08:00:00 0,4 0,0 0,3 4,9 9,0 2 1 8 4 W 0,1 0 0,0
14.12.2018 07:00:00 0,7 0,3 0,4 4,9 9,0 4 2 7 4 W 0,1 0 0,0
14.12.2018 06:00:00 0,8 0,4 0,7 4,9 9,0 0 0 4 2 N 0,5 0 0,2
14.12.2018 05:00:00 0,7 0,3 0,5 4,9 9,0 0 0 5 3 N 0,3 0 0,0
14.12.2018 04:00:00 0,8 0,4 0,7 4,9 9,1 2 1 4 2 WSW 0,2 0 0,0
14.12.2018 03:00:00 0,7 0,3 0,3 4,9 9,1 0 0 0 0 N 0,9 0 0,2
14.12.2018 02:00:00 0,7 0,3 0,3 4,9 9,1 0 0 2 1 N 0,4 0 0,0
14.12.2018 01:00:00 0,8 0,4 0,5 4,9 9,1 2 1 5 3 SE 0,2 0 0,2
14.12.2018 00:00:00 0,7 0,1 0,2 4,9 9,1 2 1 4 2 SE 4,3 0 0,2
13.12.2018 23:00:00 0,9 0,3 0,4 4,9 9,1 2 1 4 2 WSW 0,3 0 1,0
13.12.2018 22:00:00 1,3 0,7 1,0 4,9 9,1 3 1 4 2 W 0,2 0 0,8
13.12.2018 21:00:00 1,5 0,8 1,2 4,8 9,1 0 0 4 2 N 0,3 0 0,4
13.12.2018 20:00:00 1,7 1,0 1,4 4,8 9,1 3 1 6 3 W 0,9 0 0,2
13.12.2018 19:00:00 1,8 0,9 1,6 4,7 9,1 4 2 5 3 WSW 0,8 0 0,2
13.12.2018 18:00:00 2,0 0,8 1,6 4,7 9,1 0 0 5 3 N 10 0 0,2
13.12.2018 17:00:00 2,4 0,9 1,8 4,7 9,1 4 2 9 5 W 13 0 0,4
13.12.2018 16:00:00 3,1 0,7 2,9 4,7 9,2 2 1 10 5 WNW 20 0 0,0
13.12.2018 15:00:00 3,4 0,4 3,8 4,7 9,1 4 2 20 11 NW 20 0 0,0
13.12.2018 14:00:00 3,9 0,6 4,3 4,8 9,2 11 6 20 11 SSE 20 0 0,0
13.12.2018 13:00:00 3,4 -0,3 3,8 4,8 9,2 6 3 18 10 SSE 20 0 0,0
13.12.2018 12:00:00 2,9 -1,1 2,1 4,8 9,2 8 4 16 9 ESE 20 0 0,0
13.12.2018 11:00:00 1,2 -3,9 0,6 4,9 9,2 9 5 19 10 ENE 20 0 0,0
13.12.2018 10:00:00 0,2 -4,3 -0,5 5,0 9,2 9 5 19 10 E 20 0 0,0
13.12.2018 09:00:00 -0,4 -4,5 -1,5 5,0 9,2 9 5 16 9 E 12 0 0,0
13.12.2018 08:00:00 -1,4 -4,2 -3,0 5,1 9,2 7 4 15 8 E 20 0 0,0
13.12.2018 07:00:00 -2,9 -3,9 -3,3 5,1 9,2 10 5 15 8 ESE 20 0 0,0
13.12.2018 06:00:00 -2,5 -3,5 -4,7 5,2 9,2 7 4 10 6 E 20 0 0,0
13.12.2018 05:00:00 -3,3 -4,1 -4,1 5,3 9,3 7 4 12 6 ESE 20 0 0,0
13.12.2018 04:00:00 -3,0 -3,7 -5,5 5,4 9,2 8 4 16 8 ESE 20 0 0,0
13.12.2018 03:00:00 -3,1 -3,6 -3,9 5,4 9,3 9 5 15 8 E 8 0 0,0
13.12.2018 02:00:00 -2,7 -3,4 -4,8 5,5 9,3 6 3 9 5 E 19 0 0,0
13.12.2018 01:00:00 -2,6 -3,4 -4,8 5,5 9,3 8 4 10 6 SE 5 0 0,0
13.12.2018 00:00:00 -2,0 -3,0 -4,6 5,6 9,3 0 0 8 4 N 20 0 0,0
12.12.2018 23:00:00 -1,8 -2,8 -3,0 5,6 9,3 3 2 11 6 ESE 13 0 0,0
12.12.2018 22:00:00 -0,8 -2,1 -1,9 5,6 9,3 7 4 13 7 NW 20 0 0,0
12.12.2018 21:00:00 -1,4 -2,5 -3,0 5,5 9,3 3 2 6 4 W 19 0 0,0
12.12.2018 20:00:00 -0,8 -2,2 -3,6 5,5 9,3 4 2 5 3 SSE 15 0 0,0
12.12.2018 19:00:00 -0,7 -2,3 -2,9 5,5 9,3 3 2 9 5 SSW 20 0 0,0
12.12.2018 18:00:00 -0,1 -2,2 -2,1 5,4 9,3 4 2 13 7 W 20 0 0,0
12.12.2018 17:00:00 1,5 -1,7 0,4 5,4 9,3 10 6 19 11 W 20 34 0,0
12.12.2018 16:00:00 2,5 -1,1 1,5 5,4 9,3 11 6 19 10 E 20 2 0,0
12.12.2018 15:00:00 3,4 -2,8 3,7 5,4 9,4 9 5 19 10 W 20 0 0,0
12.12.2018 14:00:00 4,2 -4,1 6,1 5,4 9,4 9 5 16 9 W 20 14 0,0
12.12.2018 13:00:00 4,7 -5,7 7,1 5,4 9,3 8 5 13 7 W 20 50 0,0
12.12.2018 12:00:00 4,6 -4,9 5,6 5,5 9,4 2 1 7 4 S 20 60 0,0
12.12.2018 11:00:00 1,5 -4,2 -0,6 5,6 9,4 5 3 8 4 SE 17 48 0,0
12.12.2018 10:00:00 -1,8 -5,6 -2,4 5,7 9,3 6 3 11 6 E 20 0 0,0
12.12.2018 09:00:00 -2,5 -6,7 -3,4 5,7 9,4 5 3 11 6 ESE 19 0 0,0
12.12.2018 08:00:00 -2,9 -6,9 -4,8 5,8 9,3 8 4 10 5 ESE 20 0 0,0
12.12.2018 07:00:00 -3,3 -6,8 -4,8 5,9 9,4 2 1 10 6 WSW 20 0 0,0
12.12.2018 06:00:00 -3,0 -6,5 -3,9 6,0 9,4 5 3 11 6 SE 20 0 0,0
12.12.2018 05:00:00 -2,6 -5,9 -3,3 6,1 9,4 7 4 16 9 ESE 20 0 0,0
12.12.2018 04:00:00 -2,2 -5,9 -3,0 6,2 9,4 10 5 16 9 ESE 20 0 0,0
12.12.2018 03:00:00 -2,1 -5,6 -3,7 6,2 9,4 7 4 16 9 E 20 0 0,0
12.12.2018 02:00:00 -1,9 -5,2 -3,6 6,4 9,4 3 2 13 7 ENE 20 0 0,0
12.12.2018 01:00:00 -1,3 -4,8 -2,7 6,4 9,4 9 5 14 8 ENE 20 0 0,0
12.12.2018 00:00:00 -1,5 -4,7 -3,2 6,5 9,4 8 4 13 7 E 20 0 0,0
11.12.2018 23:00:00 -1,3 -4,5 -2,8 6,5 9,4 8 4 18 10 ENE 20 0 0,0
11.12.2018 22:00:00 -1,2 -4,5 -3,7 6,5 9,4 6 3 11 6 ENE 20 0 0,0
11.12.2018 21:00:00 -1,1 -4,5 -3,6 6,5 9,4 5 3 11 6 NE 20 0 0,0
11.12.2018 20:00:00 -0,7 -4,1 -3,5 6,4 9,5 7 4 15 8 NE 20 0 0,0
11.12.2018 19:00:00 -0,1 -3,8 -1,1 6,3 9,4 10 5 19 11 E 20 0 0,0
11.12.2018 18:00:00 0,4 -3,7 -0,4 6,2 9,4 10 5 16 9 E 20 0 0,0
11.12.2018 17:00:00 1,8 -3,5 0,6 6,2 9,5 5 3 17 9 E 20 24 0,0
11.12.2018 16:00:00 4,3 -2,3 3,7 6,1 9,5 12 6 22 12 SE 20 60 0,0
11.12.2018 15:00:00 5,1 -2,3 6,5 6,1 9,4 14 8 24 13 ESE 20 60 0,0
11.12.2018 14:00:00 5,8 -1,8 8,2 6,1 9,4 10 5 18 10 SE 20 60 0,0
11.12.2018 13:00:00 5,2 -1,7 8,1 6,1 9,4 12 6 21 12 SE 20 60 0,0
11.12.2018 12:00:00 4,0 -3,3 8,6 6,2 9,4 12 7 19 11 ENE 20 60 0,0
11.12.2018 11:00:00 3,1 -3,1 6,9 6,2 9,4 13 7 24 13 ENE 20 60 0,0
11.12.2018 10:00:00 2,7 -2,6 0,2 6,3 9,5 5 3 24 13 E 20 54 0,0
11.12.2018 09:00:00 1,1 -3,6 -3,1 6,4 9,4 6 3 12 7 SE 20 22 0,0
11.12.2018 08:00:00 0,4 -3,7 -1,5 6,5 9,5 2 1 21 12 SE 20 0 0,0
11.12.2018 07:00:00 0,6 -3,5 -0,4 6,5 9,5 9 5 28 15 E 20 0 0,0
11.12.2018 06:00:00 0,8 -3,3 -0,5 6,7 9,5 7 4 19 10 ESE 20 0 0,0
11.12.2018 05:00:00 0,6 -3,5 -0,9 6,7 9,5 7 4 38 21 SE 20 0 0,0
11.12.2018 04:00:00 0,9 -2,3 -1,7 6,8 9,5 9 5 23 12 NE 20 0 0,0
11.12.2018 03:00:00 -0,9 -2,0 -2,4 6,9 9,5 3 2 12 6 NNW 20 0 0,0
11.12.2018 02:00:00 -1,0 -2,6 -1,9 6,9 9,5 4 2 11 6 NW 20 0 0,0
11.12.2018 01:00:00 -0,9 -2,8 -2,1 6,9 9,5 6 3 17 9 W 20 0 0,0
11.12.2018 00:00:00 -0,3 -2,7 -2,5 7,0 9,5 4 2 11 6 WSW 20 0 0,0
10.12.2018 23:00:00 0,5 -3,1 -2,1 7,0 9,5 0 0 19 10 N 20 0 0,0
10.12.2018 22:00:00 1,2 -2,2 -0,8 7,0 9,5 7 4 26 14 NNE 20 0 0,0
10.12.2018 21:00:00 1,6 -1,5 0,4 7,0 9,5 14 8 27 15 N 20 0 0,0
10.12.2018 20:00:00 1,5 -1,4 0,6 7,0 9,5 13 7 32 18 NW 20 0 0,0
10.12.2018 19:00:00 1,6 -1,3 0,4 7,0 9,5 14 8 35 19 NW 20 0 0,0
10.12.2018 18:00:00 2,6 -1,0 1,7 6,9 9,5 19 10 39 21 NW 20 0 0,0
10.12.2018 17:00:00 3,6 -1,0 3,0 6,9 9,5 16 9 40 22 NW 20 40 0,0
10.12.2018 16:00:00 5,0 -1,0 4,9 6,8 9,5 22 12 51 27 NW 20 60 0,0
10.12.2018 15:00:00 4,9 -0,5 4,8 6,8 9,5 28 15 55 30 NW 20 31 0,0
10.12.2018 14:00:00 5,4 -0,2 5,1 6,8 9,5 27 15 53 29 NW 20 34 0,0
10.12.2018 13:00:00 5,6 0,2 4,7 6,9 9,5 27 15 52 28 NW 20 18 0,0
10.12.2018 12:00:00 4,4 -0,4 5,0 6,9 9,5 22 12 39 21 NW 20 13 0,0
10.12.2018 11:00:00 4,2 -0,4 4,6 6,9 9,5 24 13 47 26 NW 20 31 0,0
10.12.2018 10:00:00 3,4 0,4 2,3 6,9 9,5 17 9 39 21 NW 20 14 0,0
10.12.2018 09:00:00 2,6 0,8 1,2 7,0 9,5 20 11 34 18 NW 20 5 0,0
10.12.2018 08:00:00 2,8 0,4 1,7 7,0 9,5 19 11 40 22 WNW 20 0 0,0
10.12.2018 07:00:00 2,8 0,5 1,8 7,1 9,6 19 11 37 20 WNW 20 0 0,0
10.12.2018 06:00:00 3,0 0,7 1,4 7,1 9,5 16 9 39 21 WNW 20 0 0,0
10.12.2018 05:00:00 2,7 0,4 1,5 7,1 9,5 17 9 33 18 WNW 20 0 0,0
10.12.2018 04:00:00 2,8 0,8 1,8 7,2 9,5 18 10 31 17 W 20 0 0,0
10.12.2018 03:00:00 3,1 1,3 2,1 7,2 9,6 15 8 42 23 WNW 20 0 0,0
10.12.2018 02:00:00 3,4 2,1 2,8 7,2 9,5 12 7 20 11 W 20 0 0,4
10.12.2018 01:00:00 3,8 1,2 3,1 7,3 9,5 13 7 34 18 W 20 0 0,0
10.12.2018 00:00:00 3,9 0,9 2,9 7,3 9,6 16 9 35 19 WNW 20 0 0,0
09.12.2018 23:00:00 4,0 0,9 1,6 7,4 9,5 19 11 36 19 W 20 0 0,0
09.12.2018 22:00:00 3,8 0,1 2,0 7,4 9,5 21 11 54 29 WNW 20 0 0,0
09.12.2018 21:00:00 3,4 0,8 1,6 7,4 9,6 21 12 58 32 WNW 20 0 0,0
09.12.2018 20:00:00 3,7 2,2 2,7 7,4 9,5 22 12 41 22 W 20 0 0,0
09.12.2018 19:00:00 3,8 2,3 3,4 7,3 9,5 21 12 44 24 WNW 10 0 0,6
09.12.2018 18:00:00 4,3 1,3 3,2 7,3 9,5 24 13 55 30 WNW 20 0 0,0
09.12.2018 17:00:00 4,4 1,4 3,5 7,3 9,6 33 18 60 33 WNW 20 0 0,0
09.12.2018 16:00:00 5,8 0,9 5,7 7,2 9,6 27 15 71 39 WNW 20 11 0,0
09.12.2018 15:00:00 6,2 1,9 5,1 7,2 9,6 24 13 67 36 WNW 20 0 0,0
09.12.2018 14:00:00 6,3 1,8 6,3 7,2 9,6 23 13 75 40 W 20 4 0,0
09.12.2018 13:00:00 6,3 2,0 6,2 7,2 9,6 37 20 90 49 WNW 20 0 0,0
09.12.2018 12:00:00 7,0 3,6 7,2 7,2 9,6 24 13 49 26 W 20 0 0,0
09.12.2018 11:00:00 6,9 3,5 6,7 7,2 9,5 24 13 50 27 W 20 0 0,0
09.12.2018 10:00:00 6,6 3,6 6,0 7,2 9,6 23 12 50 27 W 20 0 0,0
09.12.2018 09:00:00 6,4 2,1 6,1 7,2 9,6 27 15 73 40 W 20 0 0,0
09.12.2018 08:00:00 6,7 2,2 5,8 7,2 9,6 33 18 67 36 W 20 0 0,0
09.12.2018 07:00:00 7,1 3,5 6,3 7,2 9,6 37 20 65 35 W 20 0 0,0

tt = temperature
td = dewpoint
tt 5cm = temperature 5cm
tt -20cm = temperature -20cm
tt -100cm = temperature -100cm
ff = wind speed
fx = gusts
dd = wind direction
vv = visibility
sd = sunshine duration
rr = precipitation

Next stations